Port Orford, OR

3:40 PM PST on December 28, 2014 (GMT -0800)
North Bend | Change Station
CLOSE
Current Station
Airport
Location: North Bend,
Elevation: 16 ft
Nearby Weather Stations
Active Advisory: Freeze Watch

Elev 16 ft 43.42 °N, 124.25 °W | Updated 5 minutes ago

Mostly Cloudy
Mostly Cloudy
48 °F
Feels Like 48 °F
N
5
Wind Variable Wind from SW

Today
High -- | Low -- °F
--% Chance of Precip.
Yesterday
High -- | Low -- °F
Precip. -- in
7:47 AM 4:51 PM
First Quarter, 52% visible
Pressure 30.34 in
Visibility 9.0 miles
Clouds Mostly Cloudy 4000 ft
Overcast 4700 ft
Dew Point 45 °F
Humidity 87%
Rainfall 0.03 in
Snow Depth Not available.
UV 0 out of 12
Pollen 2.60 out of 12
Air Quality Not available.
Flu Activity Not available.
METAR KOTH 282335Z 23004KT 9SM BKN040 OVC047 09/07 A3034 RMK AO1

More Conditions Fewer Conditions

Pressure 30.34 in
Visibility 9.0 miles
Clouds Mostly Cloudy 4000 ft
Overcast 4700 ft
Dew Point 45 °F
Humidity 87%
Rainfall 0.03 in
Snow Depth Not available.
UV 0 out of 12
Pollen 2.60 out of 12
Air Quality Not available.
Flu Activity Not available.
METAR KOTH 282335Z 23004KT 9SM BKN040 OVC047 09/07 A3034 RMK AO1

More Conditions Fewer Conditions

10-Day Weather Forecast

Almanac

Astronomy

Dec. 28, 2014 Rise Set
Actual Time
Civil Twilight
Nautical Twilight
Astronomical Twilight
Moon
Length of Visible Light
Length of Day
Tomorrow will be .
, % of the Moon is Illuminated

Today's Extremes

State Highs State Lows

Community

WunderPhotos

Upload Photos

1,781,460 photos uploaded!

WunderBlogs® & News

Nearby

Air Quality

  Air Quality AQ Index Pollutant
Not available.

Snow Depth

Station Depth Elevation

Earthquake Activity

City Distance Mag. Time & Date
Minimum magnitude displayed is 2.5.

Coastal Water Temperatures

Place Temperature

Nearby Weather Stations